sensor_id;sensor_type;location;lat;lon;timestamp;temperature;humidity
22130;DHT22;11231;50.746;4.272;2024-01-15T00:01:50;3.80;99.90
22130;DHT22;11231;50.746;4.272;2024-01-15T00:04:15;3.90;99.90
22130;DHT22;11231;50.746;4.272;2024-01-15T00:06:41;4.00;99.90
22130;DHT22;11231;50.746;4.272;2024-01-15T00:09:07;4.00;99.90
22130;DHT22;11231;50.746;4.272;2024-01-15T00:11:33;4.10;99.90
22130;DHT22;11231;50.746;4.272;2024-01-15T00:13:58;4.10;99.90
22130;DHT22;11231;50.746;4.272;2024-01-15T00:16:24;4.10;99.90
22130;DHT22;11231;50.746;4.272;2024-01-15T00:18:50;4.10;99.90
22130;DHT22;11231;50.746;4.272;2024-01-15T00:21:16;4.20;99.90
22130;DHT22;11231;50.746;4.272;2024-01-15T00:23:44;4.00;99.90
22130;DHT22;11231;50.746;4.272;2024-01-15T00:26:11;4.00;99.90
22130;DHT22;11231;50.746;4.272;2024-01-15T00:28:37;4.00;99.90
22130;DHT22;11231;50.746;4.272;2024-01-15T00:31:06;4.00;99.90
22130;DHT22;11231;50.746;4.272;2024-01-15T00:33:32;4.00;99.90
22130;DHT22;11231;50.746;4.272;2024-01-15T00:35:58;3.90;99.90
22130;DHT22;11231;50.746;4.272;2024-01-15T00:38:24;3.90;99.90
22130;DHT22;11231;50.746;4.272;2024-01-15T00:40:50;3.80;99.90
22130;DHT22;11231;50.746;4.272;2024-01-15T00:43:16;3.80;99.90
22130;DHT22;11231;50.746;4.272;2024-01-15T00:45:43;3.60;99.90
22130;DHT22;11231;50.746;4.272;2024-01-15T00:48:09;3.60;99.90
22130;DHT22;11231;50.746;4.272;2024-01-15T00:50:35;3.60;99.90
22130;DHT22;11231;50.746;4.272;2024-01-15T00:53:01;3.60;99.90
22130;DHT22;11231;50.746;4.272;2024-01-15T00:55:28;3.60;99.90
22130;DHT22;11231;50.746;4.272;2024-01-15T00:57:55;3.50;99.90
22130;DHT22;11231;50.746;4.272;2024-01-15T01:00:20;3.60;99.90
22130;DHT22;11231;50.746;4.272;2024-01-15T01:02:46;3.70;99.90
22130;DHT22;11231;50.746;4.272;2024-01-15T01:05:12;3.80;99.90
22130;DHT22;11231;50.746;4.272;2024-01-15T01:07:38;3.90;99.90
22130;DHT22;11231;50.746;4.272;2024-01-15T01:10:04;3.90;99.90
22130;DHT22;11231;50.746;4.272;2024-01-15T01:12:30;4.10;99.90
22130;DHT22;11231;50.746;4.272;2024-01-15T01:14:56;4.10;99.90
22130;DHT22;11231;50.746;4.272;2024-01-15T01:17:22;4.20;99.90
22130;DHT22;11231;50.746;4.272;2024-01-15T01:19:49;4.30;99.90
22130;DHT22;11231;50.746;4.272;2024-01-15T01:22:15;4.30;99.90
22130;DHT22;11231;50.746;4.272;2024-01-15T01:24:40;4.20;99.90
22130;DHT22;11231;50.746;4.272;2024-01-15T01:27:06;4.20;99.90
22130;DHT22;11231;50.746;4.272;2024-01-15T01:29:32;4.10;99.90
22130;DHT22;11231;50.746;4.272;2024-01-15T01:31:58;4.10;99.90
22130;DHT22;11231;50.746;4.272;2024-01-15T01:34:23;3.90;99.90
22130;DHT22;11231;50.746;4.272;2024-01-15T01:36:50;4.00;99.90
22130;DHT22;11231;50.746;4.272;2024-01-15T01:39:15;4.00;99.90
22130;DHT22;11231;50.746;4.272;2024-01-15T01:41:42;4.00;99.90
22130;DHT22;11231;50.746;4.272;2024-01-15T01:44:08;4.10;99.90
22130;DHT22;11231;50.746;4.272;2024-01-15T01:46:34;4.20;99.90
22130;DHT22;11231;50.746;4.272;2024-01-15T01:49:05;4.10;99.90
22130;DHT22;11231;50.746;4.272;2024-01-15T01:51:32;4.10;99.90
22130;DHT22;11231;50.746;4.272;2024-01-15T01:53:59;4.10;99.90
22130;DHT22;11231;50.746;4.272;2024-01-15T01:56:26;4.20;99.90
22130;DHT22;11231;50.746;4.272;2024-01-15T01:58:52;4.20;99.90
22130;DHT22;11231;50.746;4.272;2024-01-15T02:01:18;4.10;99.90
22130;DHT22;11231;50.746;4.272;2024-01-15T02:03:45;4.10;99.90
22130;DHT22;11231;50.746;4.272;2024-01-15T02:06:10;4.10;99.90
22130;DHT22;11231;50.746;4.272;2024-01-15T02:08:37;3.90;99.90
22130;DHT22;11231;50.746;4.272;2024-01-15T02:11:03;3.80;99.90
22130;DHT22;11231;50.746;4.272;2024-01-15T02:13:28;3.90;99.90
22130;DHT22;11231;50.746;4.272;2024-01-15T02:15:55;4.00;99.90
22130;DHT22;11231;50.746;4.272;2024-01-15T02:18:21;4.10;99.90
22130;DHT22;11231;50.746;4.272;2024-01-15T02:20:47;4.10;99.90
22130;DHT22;11231;50.746;4.272;2024-01-15T02:23:14;4.20;99.90
22130;DHT22;11231;50.746;4.272;2024-01-15T02:25:44;4.10;99.90
22130;DHT22;11231;50.746;4.272;2024-01-15T02:28:12;4.10;99.90
22130;DHT22;11231;50.746;4.272;2024-01-15T02:30:39;4.10;99.90
22130;DHT22;11231;50.746;4.272;2024-01-15T02:33:10;4.00;99.90
22130;DHT22;11231;50.746;4.272;2024-01-15T02:35:36;4.00;99.90
22130;DHT22;11231;50.746;4.272;2024-01-15T02:38:02;4.00;99.90
22130;DHT22;11231;50.746;4.272;2024-01-15T02:40:29;4.00;99.90
22130;DHT22;11231;50.746;4.272;2024-01-15T02:42:55;3.80;99.90
22130;DHT22;11231;50.746;4.272;2024-01-15T02:45:21;3.80;99.90
22130;DHT22;11231;50.746;4.272;2024-01-15T02:47:47;3.90;99.90
22130;DHT22;11231;50.746;4.272;2024-01-15T02:50:13;3.90;99.90
22130;DHT22;11231;50.746;4.272;2024-01-15T02:52:39;3.80;99.90
22130;DHT22;11231;50.746;4.272;2024-01-15T02:55:06;3.70;99.90
22130;DHT22;11231;50.746;4.272;2024-01-15T02:57:31;3.60;99.90
22130;DHT22;11231;50.746;4.272;2024-01-15T02:59:57;3.80;99.90
22130;DHT22;11231;50.746;4.272;2024-01-15T03:02:23;3.70;99.90
22130;DHT22;11231;50.746;4.272;2024-01-15T03:04:49;3.80;99.90
22130;DHT22;11231;50.746;4.272;2024-01-15T03:07:15;3.90;99.90
22130;DHT22;11231;50.746;4.272;2024-01-15T03:09:40;3.90;99.90
22130;DHT22;11231;50.746;4.272;2024-01-15T03:12:06;3.90;99.90
22130;DHT22;11231;50.746;4.272;2024-01-15T03:14:32;4.00;99.90
22130;DHT22;11231;50.746;4.272;2024-01-15T03:16:58;4.00;99.90
22130;DHT22;11231;50.746;4.272;2024-01-15T03:19:24;4.00;99.90
22130;DHT22;11231;50.746;4.272;2024-01-15T03:21:49;4.00;99.90
22130;DHT22;11231;50.746;4.272;2024-01-15T03:24:15;4.00;99.90
22130;DHT22;11231;50.746;4.272;2024-01-15T03:26:41;4.10;99.90
22130;DHT22;11231;50.746;4.272;2024-01-15T03:29:07;4.00;99.90
22130;DHT22;11231;50.746;4.272;2024-01-15T03:31:33;4.00;99.90
22130;DHT22;11231;50.746;4.272;2024-01-15T03:33:59;4.10;99.90
22130;DHT22;11231;50.746;4.272;2024-01-15T03:36:24;4.10;99.90
22130;DHT22;11231;50.746;4.272;2024-01-15T03:38:50;4.10;99.90
22130;DHT22;11231;50.746;4.272;2024-01-15T03:41:16;3.80;99.90
22130;DHT22;11231;50.746;4.272;2024-01-15T03:43:42;3.80;99.90
22130;DHT22;11231;50.746;4.272;2024-01-15T03:46:07;3.70;99.90
22130;DHT22;11231;50.746;4.272;2024-01-15T03:48:33;3.70;99.90
22130;DHT22;11231;50.746;4.272;2024-01-15T03:50:59;3.80;99.90
22130;DHT22;11231;50.746;4.272;2024-01-15T03:53:25;3.90;99.90
22130;DHT22;11231;50.746;4.272;2024-01-15T03:55:51;3.90;99.90
22130;DHT22;11231;50.746;4.272;2024-01-15T03:58:17;4.00;99.90
22130;DHT22;11231;50.746;4.272;2024-01-15T04:00:44;3.90;99.90
22130;DHT22;11231;50.746;4.272;2024-01-15T04:03:10;3.90;99.90
22130;DHT22;11231;50.746;4.272;2024-01-15T04:05:35;3.90;99.90
22130;DHT22;11231;50.746;4.272;2024-01-15T04:08:01;4.00;99.90
22130;DHT22;11231;50.746;4.272;2024-01-15T04:10:27;4.10;99.90
22130;DHT22;11231;50.746;4.272;2024-01-15T04:12:53;4.00;99.90
22130;DHT22;11231;50.746;4.272;2024-01-15T04:15:18;4.10;99.90
22130;DHT22;11231;50.746;4.272;2024-01-15T04:17:44;4.10;99.90
22130;DHT22;11231;50.746;4.272;2024-01-15T04:20:10;4.10;99.90
22130;DHT22;11231;50.746;4.272;2024-01-15T04:22:36;4.20;99.90
22130;DHT22;11231;50.746;4.272;2024-01-15T04:25:03;4.20;99.90
22130;DHT22;11231;50.746;4.272;2024-01-15T04:27:29;4.20;99.90
22130;DHT22;11231;50.746;4.272;2024-01-15T04:29:55;4.20;99.90
22130;DHT22;11231;50.746;4.272;2024-01-15T04:32:21;4.30;99.90
22130;DHT22;11231;50.746;4.272;2024-01-15T04:34:46;4.40;99.90
22130;DHT22;11231;50.746;4.272;2024-01-15T04:37:13;4.20;99.90
22130;DHT22;11231;50.746;4.272;2024-01-15T04:39:39;4.20;99.90
22130;DHT22;11231;50.746;4.272;2024-01-15T04:42:05;4.20;99.90
22130;DHT22;11231;50.746;4.272;2024-01-15T04:44:30;4.10;99.90
22130;DHT22;11231;50.746;4.272;2024-01-15T04:46:56;3.90;99.90
22130;DHT22;11231;50.746;4.272;2024-01-15T04:49:22;3.80;99.90
22130;DHT22;11231;50.746;4.272;2024-01-15T04:51:48;3.80;99.90
22130;DHT22;11231;50.746;4.272;2024-01-15T04:54:13;3.80;99.90
22130;DHT22;11231;50.746;4.272;2024-01-15T04:56:43;3.90;99.90
22130;DHT22;11231;50.746;4.272;2024-01-15T04:59:10;3.90;99.90
22130;DHT22;11231;50.746;4.272;2024-01-15T05:01:36;3.80;99.90
22130;DHT22;11231;50.746;4.272;2024-01-15T05:04:01;3.90;99.90
22130;DHT22;11231;50.746;4.272;2024-01-15T05:06:28;3.80;99.90
22130;DHT22;11231;50.746;4.272;2024-01-15T05:08:53;3.80;99.90
22130;DHT22;11231;50.746;4.272;2024-01-15T05:11:19;3.60;99.90
22130;DHT22;11231;50.746;4.272;2024-01-15T05:13:45;3.70;99.90
22130;DHT22;11231;50.746;4.272;2024-01-15T05:16:10;3.80;99.90
22130;DHT22;11231;50.746;4.272;2024-01-15T05:18:36;3.80;99.90
22130;DHT22;11231;50.746;4.272;2024-01-15T05:21:05;3.90;99.90
22130;DHT22;11231;50.746;4.272;2024-01-15T05:23:34;4.00;99.90
22130;DHT22;11231;50.746;4.272;2024-01-15T05:26:00;4.00;99.90
22130;DHT22;11231;50.746;4.272;2024-01-15T05:28:26;3.90;99.90
22130;DHT22;11231;50.746;4.272;2024-01-15T05:30:51;4.00;99.90
22130;DHT22;11231;50.746;4.272;2024-01-15T05:33:18;4.10;99.90
22130;DHT22;11231;50.746;4.272;2024-01-15T05:35:44;4.10;99.90
22130;DHT22;11231;50.746;4.272;2024-01-15T05:38:09;4.20;99.90
22130;DHT22;11231;50.746;4.272;2024-01-15T05:40:35;4.20;99.90
22130;DHT22;11231;50.746;4.272;2024-01-15T05:43:01;4.10;99.90
22130;DHT22;11231;50.746;4.272;2024-01-15T05:45:27;4.20;99.90
22130;DHT22;11231;50.746;4.272;2024-01-15T05:47:52;4.20;99.90
22130;DHT22;11231;50.746;4.272;2024-01-15T05:50:18;4.30;99.90
22130;DHT22;11231;50.746;4.272;2024-01-15T05:52:44;4.30;99.90
22130;DHT22;11231;50.746;4.272;2024-01-15T05:55:11;4.30;99.90
22130;DHT22;11231;50.746;4.272;2024-01-15T05:57:37;4.30;99.90
22130;DHT22;11231;50.746;4.272;2024-01-15T06:00:04;4.30;99.90
22130;DHT22;11231;50.746;4.272;2024-01-15T06:02:31;4.30;99.90
22130;DHT22;11231;50.746;4.272;2024-01-15T06:04:57;4.30;99.90
22130;DHT22;11231;50.746;4.272;2024-01-15T06:07:23;4.40;99.90
22130;DHT22;11231;50.746;4.272;2024-01-15T06:09:49;4.40;99.90
22130;DHT22;11231;50.746;4.272;2024-01-15T06:12:15;4.30;99.90
22130;DHT22;11231;50.746;4.272;2024-01-15T06:14:40;4.30;99.90
22130;DHT22;11231;50.746;4.272;2024-01-15T06:17:07;4.40;99.90
22130;DHT22;11231;50.746;4.272;2024-01-15T06:19:32;4.40;99.90
22130;DHT22;11231;50.746;4.272;2024-01-15T06:21:58;4.30;99.90
22130;DHT22;11231;50.746;4.272;2024-01-15T06:24:24;4.20;99.90
22130;DHT22;11231;50.746;4.272;2024-01-15T06:26:49;4.10;99.90
22130;DHT22;11231;50.746;4.272;2024-01-15T06:29:16;4.10;99.90
22130;DHT22;11231;50.746;4.272;2024-01-15T06:31:42;4.00;99.90
22130;DHT22;11231;50.746;4.272;2024-01-15T06:34:08;4.00;99.90
22130;DHT22;11231;50.746;4.272;2024-01-15T06:36:34;4.00;99.90
22130;DHT22;11231;50.746;4.272;2024-01-15T06:39:00;4.10;99.90
22130;DHT22;11231;50.746;4.272;2024-01-15T06:41:26;4.00;99.90
22130;DHT22;11231;50.746;4.272;2024-01-15T06:43:52;4.00;99.90
22130;DHT22;11231;50.746;4.272;2024-01-15T06:46:23;4.00;99.90
22130;DHT22;11231;50.746;4.272;2024-01-15T06:48:49;3.90;99.90
22130;DHT22;11231;50.746;4.272;2024-01-15T06:51:15;4.00;99.90
22130;DHT22;11231;50.746;4.272;2024-01-15T06:53:41;3.90;99.90
22130;DHT22;11231;50.746;4.272;2024-01-15T06:56:07;3.80;99.90
22130;DHT22;11231;50.746;4.272;2024-01-15T06:58:33;3.70;99.90
22130;DHT22;11231;50.746;4.272;2024-01-15T07:01:00;3.60;99.90
22130;DHT22;11231;50.746;4.272;2024-01-15T07:03:25;3.50;99.90
22130;DHT22;11231;50.746;4.272;2024-01-15T07:05:53;3.60;99.90
22130;DHT22;11231;50.746;4.272;2024-01-15T07:08:19;3.60;99.90
22130;DHT22;11231;50.746;4.272;2024-01-15T07:10:45;3.50;99.90
22130;DHT22;11231;50.746;4.272;2024-01-15T07:13:10;3.40;99.90
22130;DHT22;11231;50.746;4.272;2024-01-15T07:15:36;3.40;99.90
22130;DHT22;11231;50.746;4.272;2024-01-15T07:18:03;3.40;99.90
22130;DHT22;11231;50.746;4.272;2024-01-15T07:20:29;3.30;99.90
22130;DHT22;11231;50.746;4.272;2024-01-15T07:22:55;3.30;99.90
22130;DHT22;11231;50.746;4.272;2024-01-15T07:25:20;3.30;99.90
22130;DHT22;11231;50.746;4.272;2024-01-15T07:27:46;3.30;99.90
22130;DHT22;11231;50.746;4.272;2024-01-15T07:30:13;3.20;99.90
22130;DHT22;11231;50.746;4.272;2024-01-15T07:32:39;3.10;99.90
22130;DHT22;11231;50.746;4.272;2024-01-15T07:35:06;3.10;99.90
22130;DHT22;11231;50.746;4.272;2024-01-15T07:37:32;3.10;99.90
22130;DHT22;11231;50.746;4.272;2024-01-15T07:39:59;3.20;99.90
22130;DHT22;11231;50.746;4.272;2024-01-15T07:42:25;3.20;99.90
22130;DHT22;11231;50.746;4.272;2024-01-15T07:44:51;3.20;99.90
22130;DHT22;11231;50.746;4.272;2024-01-15T07:47:17;3.20;99.90
22130;DHT22;11231;50.746;4.272;2024-01-15T07:49:43;3.20;99.90
22130;DHT22;11231;50.746;4.272;2024-01-15T07:52:09;3.20;99.90
22130;DHT22;11231;50.746;4.272;2024-01-15T07:54:35;3.00;99.90
22130;DHT22;11231;50.746;4.272;2024-01-15T07:57:02;3.00;99.90
22130;DHT22;11231;50.746;4.272;2024-01-15T07:59:32;2.90;99.90
22130;DHT22;11231;50.746;4.272;2024-01-15T08:01:59;2.90;99.90
22130;DHT22;11231;50.746;4.272;2024-01-15T08:04:25;3.00;99.90
22130;DHT22;11231;50.746;4.272;2024-01-15T08:06:50;2.90;99.90
22130;DHT22;11231;50.746;4.272;2024-01-15T08:09:16;3.00;99.90
22130;DHT22;11231;50.746;4.272;2024-01-15T08:11:42;2.90;99.90
22130;DHT22;11231;50.746;4.272;2024-01-15T08:14:09;2.90;99.90
22130;DHT22;11231;50.746;4.272;2024-01-15T08:16:36;2.90;99.90
22130;DHT22;11231;50.746;4.272;2024-01-15T08:19:02;3.00;99.90
22130;DHT22;11231;50.746;4.272;2024-01-15T08:21:28;3.10;99.90
22130;DHT22;11231;50.746;4.272;2024-01-15T08:24:00;3.00;99.90
22130;DHT22;11231;50.746;4.272;2024-01-15T08:26:26;3.00;99.90
22130;DHT22;11231;50.746;4.272;2024-01-15T08:28:52;3.10;99.90
22130;DHT22;11231;50.746;4.272;2024-01-15T08:31:17;3.20;99.90
22130;DHT22;11231;50.746;4.272;2024-01-15T08:33:43;3.40;99.90
22130;DHT22;11231;50.746;4.272;2024-01-15T08:36:09;3.60;99.90
22130;DHT22;11231;50.746;4.272;2024-01-15T08:38:35;3.70;99.90
22130;DHT22;11231;50.746;4.272;2024-01-15T08:41:01;3.80;99.90
22130;DHT22;11231;50.746;4.272;2024-01-15T08:43:27;3.70;99.90
22130;DHT22;11231;50.746;4.272;2024-01-15T08:45:53;3.60;99.90
22130;DHT22;11231;50.746;4.272;2024-01-15T08:48:19;3.60;99.90
22130;DHT22;11231;50.746;4.272;2024-01-15T08:50:45;3.50;99.90
22130;DHT22;11231;50.746;4.272;2024-01-15T08:53:13;3.50;99.90
22130;DHT22;11231;50.746;4.272;2024-01-15T08:55:39;3.40;99.90
22130;DHT22;11231;50.746;4.272;2024-01-15T08:58:05;3.40;99.90
22130;DHT22;11231;50.746;4.272;2024-01-15T09:00:31;3.50;99.90
22130;DHT22;11231;50.746;4.272;2024-01-15T09:02:57;3.60;99.90
22130;DHT22;11231;50.746;4.272;2024-01-15T09:05:23;3.50;99.90
22130;DHT22;11231;50.746;4.272;2024-01-15T09:07:48;3.40;99.90
22130;DHT22;11231;50.746;4.272;2024-01-15T09:10:16;3.50;99.90
22130;DHT22;11231;50.746;4.272;2024-01-15T09:12:42;3.50;99.90
22130;DHT22;11231;50.746;4.272;2024-01-15T09:15:08;3.60;99.90
22130;DHT22;11231;50.746;4.272;2024-01-15T09:17:34;3.60;99.90
22130;DHT22;11231;50.746;4.272;2024-01-15T09:20:00;3.60;99.90
22130;DHT22;11231;50.746;4.272;2024-01-15T09:22:26;3.60;99.90
22130;DHT22;11231;50.746;4.272;2024-01-15T09:24:52;3.60;99.90
22130;DHT22;11231;50.746;4.272;2024-01-15T09:27:18;3.60;99.90
22130;DHT22;11231;50.746;4.272;2024-01-15T09:29:44;3.60;99.90
22130;DHT22;11231;50.746;4.272;2024-01-15T09:32:12;3.70;99.90
22130;DHT22;11231;50.746;4.272;2024-01-15T09:34:38;3.60;99.90
22130;DHT22;11231;50.746;4.272;2024-01-15T09:37:04;3.50;99.90
22130;DHT22;11231;50.746;4.272;2024-01-15T09:39:30;3.30;99.90
22130;DHT22;11231;50.746;4.272;2024-01-15T09:41:58;3.40;99.90
22130;DHT22;11231;50.746;4.272;2024-01-15T09:44:24;3.50;99.90
22130;DHT22;11231;50.746;4.272;2024-01-15T09:46:51;3.60;99.90
22130;DHT22;11231;50.746;4.272;2024-01-15T09:49:17;3.60;99.90
22130;DHT22;11231;50.746;4.272;2024-01-15T09:51:43;3.70;99.90
22130;DHT22;11231;50.746;4.272;2024-01-15T09:54:09;3.70;99.90
22130;DHT22;11231;50.746;4.272;2024-01-15T09:56:36;3.70;99.90
22130;DHT22;11231;50.746;4.272;2024-01-15T09:59:02;3.60;99.90
22130;DHT22;11231;50.746;4.272;2024-01-15T10:01:31;3.60;99.90
22130;DHT22;11231;50.746;4.272;2024-01-15T10:03:57;3.60;99.90
22130;DHT22;11231;50.746;4.272;2024-01-15T10:06:26;3.80;99.90
22130;DHT22;11231;50.746;4.272;2024-01-15T10:08:54;3.80;99.90
22130;DHT22;11231;50.746;4.272;2024-01-15T10:11:21;3.90;99.90
22130;DHT22;11231;50.746;4.272;2024-01-15T10:13:47;4.10;99.90
22130;DHT22;11231;50.746;4.272;2024-01-15T10:16:17;4.20;99.90
22130;DHT22;11231;50.746;4.272;2024-01-15T10:18:43;4.20;99.90
22130;DHT22;11231;50.746;4.272;2024-01-15T10:21:09;4.20;99.90
22130;DHT22;11231;50.746;4.272;2024-01-15T10:23:35;4.30;99.90
22130;DHT22;11231;50.746;4.272;2024-01-15T10:26:02;4.20;99.90
22130;DHT22;11231;50.746;4.272;2024-01-15T10:28:29;4.20;99.90
22130;DHT22;11231;50.746;4.272;2024-01-15T10:30:57;4.40;99.90
22130;DHT22;11231;50.746;4.272;2024-01-15T10:33:25;5.40;99.90
22130;DHT22;11231;50.746;4.272;2024-01-15T10:35:55;6.30;99.90
22130;DHT22;11231;50.746;4.272;2024-01-15T10:38:22;7.50;99.90
22130;DHT22;11231;50.746;4.272;2024-01-15T10:40:51;7.20;99.90
22130;DHT22;11231;50.746;4.272;2024-01-15T10:43:17;7.60;99.90
22130;DHT22;11231;50.746;4.272;2024-01-15T10:45:45;7.90;99.90
22130;DHT22;11231;50.746;4.272;2024-01-15T10:48:11;8.80;99.90
22130;DHT22;11231;50.746;4.272;2024-01-15T10:50:37;9.00;99.90
22130;DHT22;11231;50.746;4.272;2024-01-15T10:53:04;9.30;99.90
22130;DHT22;11231;50.746;4.272;2024-01-15T10:55:31;9.70;99.90
22130;DHT22;11231;50.746;4.272;2024-01-15T10:57:58;10.50;99.90
22130;DHT22;11231;50.746;4.272;2024-01-15T11:00:24;9.30;99.90
22130;DHT22;11231;50.746;4.272;2024-01-15T11:02:51;9.30;99.90
22130;DHT22;11231;50.746;4.272;2024-01-15T11:05:18;9.70;99.90
22130;DHT22;11231;50.746;4.272;2024-01-15T11:07:48;9.90;99.90
22130;DHT22;11231;50.746;4.272;2024-01-15T11:19:15;8.60;99.90
22130;DHT22;11231;50.746;4.272;2024-01-15T11:23:51;8.70;99.90
22130;DHT22;11231;50.746;4.272;2024-01-15T11:26:36;8.40;99.90
22130;DHT22;11231;50.746;4.272;2024-01-15T11:29:06;8.80;99.90
22130;DHT22;11231;50.746;4.272;2024-01-15T11:34:09;10.00;99.90
22130;DHT22;11231;50.746;4.272;2024-01-15T11:42:01;9.30;99.90
22130;DHT22;11231;50.746;4.272;2024-01-15T11:44:30;8.80;99.90
22130;DHT22;11231;50.746;4.272;2024-01-15T11:47:00;8.40;99.90
22130;DHT22;11231;50.746;4.272;2024-01-15T11:52:17;7.40;99.90
22130;DHT22;11231;50.746;4.272;2024-01-15T11:54:52;7.20;99.90
22130;DHT22;11231;50.746;4.272;2024-01-15T12:00:08;7.20;99.90
22130;DHT22;11231;50.746;4.272;2024-01-15T12:02:44;7.70;99.90
22130;DHT22;11231;50.746;4.272;2024-01-15T12:05:15;8.20;99.90
22130;DHT22;11231;50.746;4.272;2024-01-15T12:07:42;8.20;99.90
22130;DHT22;11231;50.746;4.272;2024-01-15T12:10:22;8.50;99.90
22130;DHT22;11231;50.746;4.272;2024-01-15T12:12:57;9.40;99.90
22130;DHT22;11231;50.746;4.272;2024-01-15T12:15:24;9.70;99.90
22130;DHT22;11231;50.746;4.272;2024-01-15T12:17:51;10.00;99.90
22130;DHT22;11231;50.746;4.272;2024-01-15T12:20:18;9.40;99.90
22130;DHT22;11231;50.746;4.272;2024-01-15T12:22:44;9.00;99.90
22130;DHT22;11231;50.746;4.272;2024-01-15T12:25:10;9.20;99.90
22130;DHT22;11231;50.746;4.272;2024-01-15T12:27:36;9.70;99.90
22130;DHT22;11231;50.746;4.272;2024-01-15T12:30:02;9.80;99.90
22130;DHT22;11231;50.746;4.272;2024-01-15T12:32:29;9.30;99.90
22130;DHT22;11231;50.746;4.272;2024-01-15T12:34:55;9.70;99.90
22130;DHT22;11231;50.746;4.272;2024-01-15T12:37:21;10.10;99.90
22130;DHT22;11231;50.746;4.272;2024-01-15T12:39:47;9.60;99.90
22130;DHT22;11231;50.746;4.272;2024-01-15T12:42:14;9.40;99.90
22130;DHT22;11231;50.746;4.272;2024-01-15T12:44:42;8.90;99.90
22130;DHT22;11231;50.746;4.272;2024-01-15T12:47:09;8.60;99.90
22130;DHT22;11231;50.746;4.272;2024-01-15T12:49:37;8.40;99.90
22130;DHT22;11231;50.746;4.272;2024-01-15T12:52:03;8.10;99.90
22130;DHT22;11231;50.746;4.272;2024-01-15T12:54:30;7.70;99.90
22130;DHT22;11231;50.746;4.272;2024-01-15T12:56:55;7.30;99.90
22130;DHT22;11231;50.746;4.272;2024-01-15T12:59:21;7.20;99.90
22130;DHT22;11231;50.746;4.272;2024-01-15T13:01:47;7.00;99.90
22130;DHT22;11231;50.746;4.272;2024-01-15T13:04:22;6.80;99.90
22130;DHT22;11231;50.746;4.272;2024-01-15T13:06:52;6.60;99.90
22130;DHT22;11231;50.746;4.272;2024-01-15T13:09:19;6.40;99.90
22130;DHT22;11231;50.746;4.272;2024-01-15T13:11:46;6.10;99.90
22130;DHT22;11231;50.746;4.272;2024-01-15T13:14:12;5.60;99.90
22130;DHT22;11231;50.746;4.272;2024-01-15T13:16:41;5.60;99.90
22130;DHT22;11231;50.746;4.272;2024-01-15T13:19:10;5.60;99.90
22130;DHT22;11231;50.746;4.272;2024-01-15T13:21:40;5.70;99.90
22130;DHT22;11231;50.746;4.272;2024-01-15T13:24:06;5.60;99.90
22130;DHT22;11231;50.746;4.272;2024-01-15T13:26:35;5.60;99.90
22130;DHT22;11231;50.746;4.272;2024-01-15T13:29:04;5.50;99.90
22130;DHT22;11231;50.746;4.272;2024-01-15T13:31:31;5.60;99.90
22130;DHT22;11231;50.746;4.272;2024-01-15T13:33:56;5.60;99.90
22130;DHT22;11231;50.746;4.272;2024-01-15T13:36:24;5.60;99.90
22130;DHT22;11231;50.746;4.272;2024-01-15T13:38:51;5.60;99.90
22130;DHT22;11231;50.746;4.272;2024-01-15T13:41:18;5.70;99.90
22130;DHT22;11231;50.746;4.272;2024-01-15T13:43:54;5.70;99.90
22130;DHT22;11231;50.746;4.272;2024-01-15T13:46:24;5.80;99.90
22130;DHT22;11231;50.746;4.272;2024-01-15T13:48:49;5.90;99.90
22130;DHT22;11231;50.746;4.272;2024-01-15T13:51:15;6.00;99.90
22130;DHT22;11231;50.746;4.272;2024-01-15T13:53:41;6.00;99.90
22130;DHT22;11231;50.746;4.272;2024-01-15T13:56:07;5.90;99.90
22130;DHT22;11231;50.746;4.272;2024-01-15T13:58:33;5.90;99.90
22130;DHT22;11231;50.746;4.272;2024-01-15T14:01:01;5.90;99.90
22130;DHT22;11231;50.746;4.272;2024-01-15T14:03:29;5.90;99.90
22130;DHT22;11231;50.746;4.272;2024-01-15T14:05:55;5.60;99.90
22130;DHT22;11231;50.746;4.272;2024-01-15T14:08:21;5.60;99.90
22130;DHT22;11231;50.746;4.272;2024-01-15T14:10:47;5.60;99.90
22130;DHT22;11231;50.746;4.272;2024-01-15T14:13:13;5.50;99.90
22130;DHT22;11231;50.746;4.272;2024-01-15T14:15:38;5.60;99.90
22130;DHT22;11231;50.746;4.272;2024-01-15T14:18:05;5.40;99.90
22130;DHT22;11231;50.746;4.272;2024-01-15T14:20:31;5.10;99.90
22130;DHT22;11231;50.746;4.272;2024-01-15T14:22:57;5.00;99.90
22130;DHT22;11231;50.746;4.272;2024-01-15T14:25:22;4.90;99.90
22130;DHT22;11231;50.746;4.272;2024-01-15T14:27:49;5.00;99.90
22130;DHT22;11231;50.746;4.272;2024-01-15T14:30:17;5.10;99.90
22130;DHT22;11231;50.746;4.272;2024-01-15T14:32:43;5.20;99.90
22130;DHT22;11231;50.746;4.272;2024-01-15T14:35:09;5.30;99.90
22130;DHT22;11231;50.746;4.272;2024-01-15T14:37:37;5.40;99.90
22130;DHT22;11231;50.746;4.272;2024-01-15T14:40:04;5.50;99.90
22130;DHT22;11231;50.746;4.272;2024-01-15T14:42:30;5.50;99.90
22130;DHT22;11231;50.746;4.272;2024-01-15T14:44:56;5.50;99.90
22130;DHT22;11231;50.746;4.272;2024-01-15T14:47:22;5.60;99.90
22130;DHT22;11231;50.746;4.272;2024-01-15T14:49:49;5.60;99.90
22130;DHT22;11231;50.746;4.272;2024-01-15T14:52:16;5.80;99.90
22130;DHT22;11231;50.746;4.272;2024-01-15T14:54:42;5.90;99.90
22130;DHT22;11231;50.746;4.272;2024-01-15T14:57:08;5.70;99.90
22130;DHT22;11231;50.746;4.272;2024-01-15T14:59:34;5.50;99.90
22130;DHT22;11231;50.746;4.272;2024-01-15T15:02:01;5.30;99.90
22130;DHT22;11231;50.746;4.272;2024-01-15T15:04:27;5.20;99.90
22130;DHT22;11231;50.746;4.272;2024-01-15T15:06:54;5.00;99.90
22130;DHT22;11231;50.746;4.272;2024-01-15T15:09:19;4.00;99.90
22130;DHT22;11231;50.746;4.272;2024-01-15T15:11:45;3.30;99.90
22130;DHT22;11231;50.746;4.272;2024-01-15T15:14:11;3.00;99.90
22130;DHT22;11231;50.746;4.272;2024-01-15T15:16:36;2.80;99.90
22130;DHT22;11231;50.746;4.272;2024-01-15T15:19:03;2.90;99.90
22130;DHT22;11231;50.746;4.272;2024-01-15T15:21:29;3.10;99.90
22130;DHT22;11231;50.746;4.272;2024-01-15T15:23:55;3.20;99.90
22130;DHT22;11231;50.746;4.272;2024-01-15T15:26:21;3.30;99.90
22130;DHT22;11231;50.746;4.272;2024-01-15T15:28:46;3.30;99.90
22130;DHT22;11231;50.746;4.272;2024-01-15T15:31:12;3.50;99.90
22130;DHT22;11231;50.746;4.272;2024-01-15T15:33:38;3.50;99.90
22130;DHT22;11231;50.746;4.272;2024-01-15T15:36:04;3.50;99.90
22130;DHT22;11231;50.746;4.272;2024-01-15T15:38:33;3.60;99.90
22130;DHT22;11231;50.746;4.272;2024-01-15T15:41:02;3.60;99.90
22130;DHT22;11231;50.746;4.272;2024-01-15T15:43:28;3.70;99.90
22130;DHT22;11231;50.746;4.272;2024-01-15T15:45:54;3.80;99.90
22130;DHT22;11231;50.746;4.272;2024-01-15T15:48:20;3.90;99.90
22130;DHT22;11231;50.746;4.272;2024-01-15T15:50:46;4.00;99.90
22130;DHT22;11231;50.746;4.272;2024-01-15T15:53:12;4.20;99.90
22130;DHT22;11231;50.746;4.272;2024-01-15T15:55:38;4.30;99.90
22130;DHT22;11231;50.746;4.272;2024-01-15T15:58:05;4.30;99.90
22130;DHT22;11231;50.746;4.272;2024-01-15T16:00:31;4.20;99.90
22130;DHT22;11231;50.746;4.272;2024-01-15T16:02:57;4.30;99.90
22130;DHT22;11231;50.746;4.272;2024-01-15T16:05:23;4.30;99.90